createdAt,value
2022-12-12T00:00:28.533Z,34.05
2022-12-12T00:02:57.678Z,38.05
2022-12-12T00:05:29.283Z,32.00
2022-12-12T00:07:56.791Z,38.00
2022-12-12T00:10:23.935Z,30.05
2022-12-12T00:12:51.245Z,30.77
2022-12-12T00:15:19.134Z,32.33
2022-12-12T00:17:46.269Z,32.03
2022-12-12T00:20:13.512Z,32.65
2022-12-12T00:22:41.150Z,29.30
2022-12-12T00:25:08.600Z,36.63
2022-12-12T00:27:35.743Z,35.75
2022-12-12T00:30:02.958Z,28.75
2022-12-12T00:32:31.554Z,34.45
2022-12-12T00:34:58.677Z,26.50
2022-12-12T00:37:25.836Z,29.48
2022-12-12T00:39:53.939Z,30.45
2022-12-12T00:42:21.148Z,28.98
2022-12-12T00:44:48.750Z,26.23
2022-12-12T00:47:16.023Z,27.05
2022-12-12T00:49:43.126Z,27.63
2022-12-12T00:52:10.434Z,26.63
2022-12-12T00:54:37.763Z,27.50
2022-12-12T00:57:04.933Z,25.50
2022-12-12T00:59:32.046Z,27.42
2022-12-12T01:01:59.265Z,27.42
2022-12-12T01:04:26.657Z,30.48
2022-12-12T01:06:53.835Z,27.48
2022-12-12T01:09:20.981Z,26.33
2022-12-12T01:11:48.097Z,26.08
2022-12-12T01:14:15.246Z,25.38
2022-12-12T01:16:42.461Z,23.38
2022-12-12T01:19:09.882Z,29.13
2022-12-12T01:21:37.699Z,25.25
2022-12-12T01:24:05.025Z,30.02
2022-12-12T01:26:32.196Z,25.02
2022-12-12T01:28:59.322Z,25.52
2022-12-12T01:31:26.549Z,25.45
2022-12-12T01:33:53.771Z,33.55
2022-12-12T01:36:22.000Z,29.50
2022-12-12T01:38:50.241Z,30.90
2022-12-12T01:41:18.151Z,31.52
2022-12-12T01:43:45.808Z,32.17
2022-12-12T01:46:32.937Z,35.80
2022-12-12T01:49:20.399Z,36.10
2022-12-12T01:51:48.658Z,31.25
2022-12-12T01:54:18.127Z,33.20
2022-12-12T01:56:45.904Z,32.15
2022-12-12T01:59:15.383Z,30.02
2022-12-12T02:01:43.045Z,29.50
2022-12-12T02:04:11.250Z,27.38
2022-12-12T02:06:39.417Z,26.92
2022-12-12T02:09:08.906Z,33.20
2022-12-12T02:11:38.408Z,29.55
2022-12-12T02:14:05.932Z,28.48
2022-12-12T02:16:51.443Z,29.90
2022-12-12T02:19:18.681Z,34.38
2022-12-12T02:21:50.384Z,40.33
2022-12-12T02:24:20.487Z,66.70
2022-12-12T02:27:06.585Z,45.75
2022-12-12T02:29:36.463Z,33.05
2022-12-12T02:32:03.564Z,30.25
2022-12-12T02:34:35.368Z,54.50
2022-12-12T02:37:14.133Z,36.55
2022-12-12T02:39:58.971Z,32.08
2022-12-12T02:42:42.858Z,34.45
2022-12-12T02:45:16.378Z,35.40
2022-12-12T02:47:54.231Z,32.78
2022-12-12T02:50:26.369Z,38.97
2022-12-12T02:52:53.553Z,32.38
2022-12-12T02:55:20.933Z,32.60
2022-12-12T02:57:49.436Z,35.92
2022-12-12T03:00:18.521Z,32.45
2022-12-12T03:03:23.399Z,34.35
2022-12-12T03:06:18.151Z,34.55
2022-12-12T03:08:55.034Z,35.10
2022-12-12T03:11:40.836Z,37.90
2022-12-12T03:14:26.966Z,36.97
2022-12-12T03:17:01.126Z,34.80
2022-12-12T03:19:35.449Z,35.75
2022-12-12T03:22:14.871Z,36.65
2022-12-12T03:24:51.283Z,32.05
2022-12-12T03:27:21.493Z,32.85
2022-12-12T03:29:51.570Z,31.27
2022-12-12T03:32:23.443Z,34.85
2022-12-12T03:34:52.949Z,32.97
2022-12-12T03:37:40.302Z,37.33
2022-12-12T03:40:36.834Z,33.55
2022-12-12T03:43:12.281Z,32.13
2022-12-12T03:45:48.880Z,36.33
2022-12-12T03:48:28.276Z,32.33
2022-12-12T03:50:58.487Z,35.00
2022-12-12T03:53:39.247Z,34.58
2022-12-12T03:56:12.639Z,36.35
2022-12-12T03:58:43.787Z,32.55
2022-12-12T04:01:13.540Z,35.97
2022-12-12T04:03:52.626Z,33.70
2022-12-12T04:06:30.624Z,34.60
2022-12-12T04:09:20.950Z,32.85
2022-12-12T04:12:26.851Z,33.42
2022-12-12T04:15:04.716Z,31.48
2022-12-12T04:17:37.192Z,36.60
2022-12-12T04:23:15.321Z,37.75
2022-12-12T04:26:04.122Z,35.50
2022-12-12T04:28:33.290Z,37.30
2022-12-12T04:31:03.683Z,39.45
2022-12-12T04:33:33.779Z,39.80
2022-12-12T04:36:01.300Z,40.70
2022-12-12T04:38:28.481Z,41.13
2022-12-12T04:40:57.575Z,43.17
2022-12-12T04:43:31.597Z,40.50
2022-12-12T04:46:01.078Z,37.47
2022-12-12T04:48:53.605Z,37.80
2022-12-12T04:53:51.673Z,42.60
2022-12-12T04:56:20.967Z,47.03
2022-12-12T04:58:48.166Z,43.83
2022-12-12T05:01:18.948Z,41.83
2022-12-12T05:03:52.124Z,57.35
2022-12-12T05:06:22.452Z,133.55
2022-12-12T05:08:52.419Z,45.05
2022-12-12T05:11:22.004Z,57.75
2022-12-12T05:13:50.502Z,45.97
2022-12-12T05:16:23.830Z,51.08
2022-12-12T05:18:51.040Z,52.10
2022-12-12T05:21:18.166Z,53.03
2022-12-12T05:23:45.306Z,94.85
2022-12-12T05:26:32.390Z,56.15
2022-12-12T05:29:06.673Z,63.15
2022-12-12T05:31:34.600Z,58.50
2022-12-12T05:34:01.878Z,42.00
2022-12-12T05:36:29.083Z,43.65
2022-12-12T05:38:56.191Z,43.50
2022-12-12T05:41:23.672Z,58.30
2022-12-12T05:43:50.762Z,45.20
2022-12-12T05:46:17.985Z,50.45
2022-12-12T05:48:50.355Z,55.70
2022-12-12T05:53:45.367Z,42.13
2022-12-12T05:56:12.981Z,44.63
2022-12-12T05:58:40.657Z,46.85
2022-12-12T06:01:08.154Z,50.00
2022-12-12T06:03:35.544Z,43.42
2022-12-12T06:06:02.721Z,42.88
2022-12-12T06:08:30.083Z,44.20
2022-12-12T06:10:57.285Z,44.78
2022-12-12T06:13:24.616Z,47.53
2022-12-12T06:15:51.974Z,55.72
2022-12-12T06:18:19.250Z,48.97
2022-12-12T06:20:46.479Z,52.60
2022-12-12T06:23:13.658Z,51.40
2022-12-12T06:25:40.842Z,50.90
2022-12-12T06:28:08.142Z,57.72
2022-12-12T06:30:35.353Z,56.03
2022-12-12T06:33:02.547Z,56.08
2022-12-12T06:35:29.739Z,59.03
2022-12-12T06:37:56.833Z,58.40
2022-12-12T06:40:24.105Z,61.65
2022-12-12T06:42:51.411Z,57.95
2022-12-12T06:45:18.595Z,56.83
2022-12-12T06:47:45.782Z,60.90
2022-12-12T06:50:13.045Z,60.53
2022-12-12T06:52:40.240Z,55.53
2022-12-12T06:55:07.545Z,51.45
2022-12-12T06:57:34.881Z,60.17
2022-12-12T07:00:02.025Z,63.90
2022-12-12T07:02:30.225Z,57.40
2022-12-12T07:04:59.009Z,56.22
2022-12-12T07:07:26.227Z,57.00
2022-12-12T07:09:53.405Z,57.10
2022-12-12T07:12:20.517Z,61.00
2022-12-12T07:14:47.846Z,62.00
2022-12-12T07:17:14.958Z,59.08
2022-12-12T07:19:42.167Z,53.92
2022-12-12T07:22:10.467Z,63.97
2022-12-12T07:24:38.356Z,51.80
2022-12-12T07:27:05.889Z,62.40
2022-12-12T07:29:33.114Z,67.40
2022-12-12T07:32:00.292Z,54.95
2022-12-12T07:34:29.684Z,62.72
2022-12-12T07:37:02.502Z,64.95
2022-12-12T07:39:31.574Z,63.05
2022-12-12T07:41:58.775Z,64.50
2022-12-12T07:44:25.910Z,72.10
2022-12-12T07:46:53.181Z,71.68
2022-12-12T07:49:20.457Z,66.97
2022-12-12T07:51:49.411Z,77.15
2022-12-12T07:54:16.877Z,66.30
2022-12-12T07:56:44.150Z,70.35
2022-12-12T07:59:11.987Z,66.18
2022-12-12T08:01:39.701Z,76.13
2022-12-12T08:04:06.931Z,68.68
2022-12-12T08:06:34.130Z,69.95
2022-12-12T08:09:01.311Z,74.63
2022-12-12T08:11:28.437Z,71.28
2022-12-12T08:13:55.727Z,69.20
2022-12-12T08:16:24.214Z,57.53
2022-12-12T08:18:54.117Z,54.63
2022-12-12T08:21:25.744Z,49.75
2022-12-12T08:26:20.836Z,50.72
2022-12-12T08:28:52.446Z,50.15
2022-12-12T08:31:21.261Z,51.28
2022-12-12T08:33:50.567Z,52.90
2022-12-12T08:36:17.688Z,62.00
2022-12-12T08:38:45.312Z,62.20
2022-12-12T08:41:12.918Z,58.58
2022-12-12T08:43:40.748Z,56.55
2022-12-12T08:46:19.797Z,47.42
2022-12-12T08:48:48.662Z,49.92
2022-12-12T08:51:16.219Z,44.50
2022-12-12T08:53:50.470Z,57.65
2022-12-12T08:56:18.073Z,46.53
2022-12-12T08:58:45.282Z,46.50
2022-12-12T09:01:13.128Z,45.05
2022-12-12T09:03:40.329Z,43.10
2022-12-12T09:06:08.053Z,52.58
2022-12-12T09:08:35.153Z,49.25
2022-12-12T09:11:02.341Z,46.78
2022-12-12T09:13:29.750Z,47.53
2022-12-12T09:15:57.272Z,45.60
2022-12-12T09:18:24.663Z,44.70
2022-12-12T09:20:56.070Z,41.20
2022-12-12T09:23:23.912Z,43.75
2022-12-12T09:25:51.555Z,42.53
2022-12-12T09:28:19.475Z,46.08
2022-12-12T09:30:47.074Z,48.67
2022-12-12T09:33:14.792Z,42.38
2022-12-12T09:35:41.971Z,43.22
2022-12-12T09:38:13.984Z,42.22
2022-12-12T09:40:55.493Z,39.38
2022-12-12T09:43:49.103Z,35.85
2022-12-12T09:46:27.014Z,40.30
2022-12-12T09:48:57.899Z,35.47
2022-12-12T09:51:25.184Z,34.53
2022-12-12T09:53:52.361Z,34.90
2022-12-12T09:56:22.346Z,36.20
2022-12-12T09:59:08.294Z,34.55
2022-12-12T10:01:39.348Z,35.00
2022-12-12T10:04:25.446Z,36.60
2022-12-12T10:07:05.200Z,33.22
2022-12-12T10:09:37.120Z,35.55
2022-12-12T10:12:08.364Z,29.15
2022-12-12T10:14:51.361Z,29.07
2022-12-12T10:19:58.126Z,32.20
2022-12-12T10:22:28.065Z,32.38
2022-12-12T10:25:14.299Z,33.80
2022-12-12T10:27:41.558Z,31.45
2022-12-12T10:30:16.052Z,31.48
2022-12-12T10:32:43.544Z,34.97
2022-12-12T10:35:26.699Z,26.17
2022-12-12T10:38:23.661Z,32.38
2022-12-12T10:40:50.891Z,34.05
2022-12-12T10:43:22.487Z,36.35
2022-12-12T10:45:52.556Z,33.53
2022-12-12T10:48:20.040Z,27.70
2022-12-12T10:50:51.883Z,25.83
2022-12-12T10:53:20.313Z,37.30
2022-12-12T10:55:47.483Z,35.22
2022-12-12T10:58:17.085Z,39.72
2022-12-12T11:00:45.755Z,34.65
2022-12-12T11:03:26.455Z,32.47
2022-12-12T11:05:54.735Z,35.92
2022-12-12T11:08:32.209Z,38.97
2022-12-12T11:11:07.226Z,32.65
2022-12-12T11:13:54.824Z,32.33
2022-12-12T11:16:26.799Z,31.95
2022-12-12T11:19:04.398Z,36.78
2022-12-12T11:21:36.449Z,27.60
2022-12-12T11:24:17.109Z,29.27
2022-12-12T11:26:49.795Z,30.20
2022-12-12T11:29:27.725Z,27.35
2022-12-12T11:31:55.751Z,29.98
2022-12-12T11:34:24.447Z,33.13
2022-12-12T11:36:53.119Z,30.60
2022-12-12T11:39:31.362Z,30.13
2022-12-12T11:41:58.625Z,28.55
2022-12-12T11:44:25.904Z,25.60
2022-12-12T11:46:53.193Z,27.30
2022-12-12T11:49:20.825Z,24.52
2022-12-12T11:51:48.325Z,26.88
2022-12-12T11:54:16.874Z,25.77
2022-12-12T11:57:02.273Z,23.73
2022-12-12T11:59:35.539Z,27.33
2022-12-12T12:02:02.681Z,30.40
2022-12-12T12:04:34.419Z,26.77
2022-12-12T12:07:09.094Z,23.70
2022-12-12T12:10:12.015Z,19.30
2022-12-12T12:12:49.015Z,21.52
2022-12-12T12:15:16.343Z,19.58
2022-12-12T12:17:57.948Z,18.33
2022-12-12T12:20:34.360Z,19.25
2022-12-12T12:23:06.860Z,19.45
2022-12-12T12:25:38.083Z,17.65
2022-12-12T12:28:10.777Z,16.02
2022-12-12T12:30:37.939Z,18.10
2022-12-12T12:33:07.985Z,19.85
2022-12-12T12:36:04.861Z,17.27
2022-12-12T12:38:58.250Z,20.02
2022-12-12T12:41:41.732Z,19.05
2022-12-12T12:44:15.229Z,20.05
2022-12-12T12:46:51.609Z,18.02
2022-12-12T12:49:34.132Z,15.55
2022-12-12T12:52:03.047Z,15.02
2022-12-12T12:54:49.006Z,15.60
2022-12-12T12:57:22.320Z,19.13
2022-12-12T12:59:54.421Z,19.45
2022-12-12T13:02:40.600Z,20.38
2022-12-12T13:05:23.438Z,21.65
2022-12-12T13:10:18.366Z,31.63
2022-12-12T13:12:53.074Z,24.23
2022-12-12T13:15:20.427Z,22.73
2022-12-12T13:17:49.338Z,21.88
2022-12-12T13:20:19.225Z,21.08
2022-12-12T13:22:50.952Z,27.83
2022-12-12T13:25:21.394Z,28.33
2022-12-12T13:27:51.316Z,29.27
2022-12-12T13:30:37.664Z,27.30
2022-12-12T13:33:11.088Z,26.67
2022-12-12T13:35:42.540Z,27.85
2022-12-12T13:38:17.751Z,27.15
2022-12-12T13:40:45.241Z,30.52
2022-12-12T13:43:32.683Z,26.42
2022-12-12T13:46:20.381Z,28.65
2022-12-12T13:48:59.861Z,28.70
2022-12-12T13:51:34.737Z,31.67
2022-12-12T13:54:12.832Z,30.08
2022-12-12T13:56:53.379Z,33.28
2022-12-12T13:59:23.616Z,30.25
2022-12-12T14:01:52.581Z,28.88
2022-12-12T14:04:43.609Z,29.17
2022-12-12T14:07:13.833Z,29.40
2022-12-12T14:09:48.447Z,27.52
2022-12-12T14:12:18.371Z,26.00
2022-12-12T14:14:53.782Z,27.80
2022-12-12T14:17:22.826Z,28.73
2022-12-12T14:19:54.220Z,34.92
2022-12-12T14:22:28.716Z,35.33
2022-12-12T14:24:59.380Z,30.73
2022-12-12T14:28:01.186Z,32.28
2022-12-12T14:30:34.299Z,33.22
2022-12-12T14:33:01.548Z,26.75
2022-12-12T14:35:58.591Z,27.15
2022-12-12T14:38:44.364Z,29.52
2022-12-12T14:41:20.000Z,27.70
2022-12-12T14:44:35.313Z,27.98
2022-12-12T14:46:44.402Z,41.10
2022-12-12T14:49:15.961Z,34.00
2022-12-12T14:51:44.212Z,34.90
2022-12-12T14:54:18.955Z,37.08
2022-12-12T14:56:53.273Z,32.03
2022-12-12T14:59:29.561Z,34.92
2022-12-12T15:02:01.487Z,29.20
2022-12-12T15:04:36.219Z,27.00
2022-12-12T15:07:04.753Z,30.10
2022-12-12T15:09:31.916Z,28.15
2022-12-12T15:12:11.292Z,26.13
2022-12-12T15:14:51.962Z,29.52
2022-12-12T15:17:32.779Z,29.80
2022-12-12T15:20:05.896Z,28.65
2022-12-12T15:22:53.866Z,26.40
2022-12-12T15:25:23.033Z,28.05
2022-12-12T15:27:55.575Z,26.23
2022-12-12T15:30:37.233Z,27.35
2022-12-12T15:33:05.727Z,27.92
2022-12-12T15:35:33.339Z,25.67
2022-12-12T15:38:13.564Z,28.85
2022-12-12T15:40:41.439Z,23.55
2022-12-12T15:43:14.810Z,31.35
2022-12-12T15:45:51.513Z,27.70
2022-12-12T15:48:19.286Z,33.03
2022-12-12T15:50:46.391Z,32.30
2022-12-12T15:53:27.023Z,30.80
2022-12-12T15:55:57.925Z,36.28
2022-12-12T15:58:29.673Z,40.55
2022-12-12T16:01:05.646Z,32.47
2022-12-12T16:03:34.134Z,36.75
2022-12-12T16:06:05.902Z,38.38
2022-12-12T16:08:33.505Z,39.55
2022-12-12T16:11:02.131Z,35.60
2022-12-12T16:13:37.206Z,31.73
2022-12-12T16:16:24.372Z,32.20
2022-12-12T16:19:02.405Z,32.38
2022-12-12T16:21:30.497Z,29.42
2022-12-12T16:24:12.205Z,30.30
2022-12-12T16:26:39.370Z,31.37
2022-12-12T16:29:06.717Z,26.65
2022-12-12T16:31:34.116Z,29.92
2022-12-12T16:34:03.228Z,40.30
2022-12-12T16:36:30.482Z,34.50
2022-12-12T16:38:57.658Z,33.40
2022-12-12T16:41:25.080Z,35.58
2022-12-12T16:43:52.328Z,36.75
2022-12-12T16:46:23.864Z,46.63
2022-12-12T16:48:53.367Z,37.92
2022-12-12T16:51:30.825Z,40.13
2022-12-12T16:53:58.081Z,38.28
2022-12-12T16:56:25.333Z,35.38
2022-12-12T16:58:53.389Z,35.03
2022-12-12T17:01:21.291Z,31.40
2022-12-12T17:03:48.671Z,31.13
2022-12-12T17:06:15.828Z,32.58
2022-12-12T17:08:44.155Z,30.10
2022-12-12T17:11:12.185Z,31.23
2022-12-12T17:13:45.178Z,28.15
2022-12-12T17:16:12.477Z,29.50
2022-12-12T17:18:39.630Z,29.02
2022-12-12T17:21:06.923Z,31.80
2022-12-12T17:23:34.214Z,29.67
2022-12-12T17:26:04.593Z,28.08
2022-12-12T17:28:33.126Z,32.60
2022-12-12T17:31:00.449Z,37.10
2022-12-12T17:33:27.719Z,31.55
2022-12-12T17:36:02.377Z,36.40
2022-12-12T17:38:30.801Z,36.33
2022-12-12T17:40:58.832Z,31.20
2022-12-12T17:43:26.989Z,36.25
2022-12-12T17:46:01.155Z,30.67
2022-12-12T17:48:30.645Z,31.77
2022-12-12T17:51:02.347Z,33.20
2022-12-12T17:53:36.622Z,31.98
2022-12-12T17:56:11.355Z,33.30
2022-12-12T17:58:40.744Z,34.55
2022-12-12T18:01:11.085Z,33.05
2022-12-12T18:03:38.419Z,32.17
2022-12-12T18:06:06.074Z,38.63
2022-12-12T18:08:33.362Z,35.53
2022-12-12T18:11:01.007Z,38.05
2022-12-12T18:13:28.250Z,36.08
2022-12-12T18:15:56.480Z,34.03
2022-12-12T18:18:26.008Z,34.25
2022-12-12T18:20:53.926Z,35.40
2022-12-12T18:23:21.115Z,34.75
2022-12-12T18:25:48.300Z,40.17
2022-12-12T18:28:15.436Z,35.50
2022-12-12T18:30:42.730Z,37.95
2022-12-12T18:33:11.059Z,42.90
2022-12-12T18:35:38.282Z,42.70
2022-12-12T18:38:05.449Z,40.80
2022-12-12T18:40:32.879Z,46.78
2022-12-12T18:43:00.206Z,49.55
2022-12-12T18:45:27.396Z,47.30
2022-12-12T18:47:55.726Z,48.30
2022-12-12T18:50:22.868Z,50.03
2022-12-12T18:52:50.086Z,44.83
2022-12-12T18:55:17.935Z,45.95
2022-12-12T18:57:45.113Z,40.42
2022-12-12T19:00:13.036Z,45.70
2022-12-12T19:02:40.640Z,43.67
2022-12-12T19:05:08.243Z,44.33
2022-12-12T19:07:35.517Z,48.45
2022-12-12T19:10:02.834Z,47.78
2022-12-12T19:12:30.007Z,57.35
2022-12-12T19:15:16.229Z,49.17
2022-12-12T19:17:44.283Z,49.13
2022-12-12T19:20:13.045Z,39.97
2022-12-12T19:22:45.471Z,43.80
2022-12-12T19:25:14.313Z,39.40
2022-12-12T19:27:41.607Z,36.75
2022-12-12T19:30:09.153Z,37.42
2022-12-12T19:32:36.510Z,39.55
2022-12-12T19:35:03.705Z,37.70
2022-12-12T19:37:30.971Z,43.88
2022-12-12T19:39:58.262Z,37.00
2022-12-12T19:42:25.440Z,43.08
2022-12-12T19:44:52.599Z,46.00
2022-12-12T19:47:20.041Z,39.92
2022-12-12T19:49:47.311Z,41.70
2022-12-12T19:52:14.771Z,39.10
2022-12-12T19:54:42.188Z,41.30
2022-12-12T19:57:09.440Z,36.70
2022-12-12T19:59:36.717Z,36.17
2022-12-12T20:02:05.577Z,40.10
2022-12-12T20:04:33.067Z,42.47
2022-12-12T20:07:00.442Z,38.22
2022-12-12T20:09:29.346Z,42.63
2022-12-12T20:11:57.847Z,38.08
2022-12-12T20:14:26.979Z,37.78
2022-12-12T20:16:54.564Z,38.20
2022-12-12T20:19:22.528Z,42.45
2022-12-12T20:22:00.907Z,44.10
2022-12-12T20:24:29.753Z,48.40
2022-12-12T20:26:57.089Z,43.20
2022-12-12T20:29:24.343Z,44.83
2022-12-12T20:31:51.920Z,41.67
2022-12-12T20:34:22.673Z,39.15
2022-12-12T20:36:50.472Z,36.70
2022-12-12T20:39:22.111Z,36.20
2022-12-12T20:41:50.311Z,34.05
2022-12-12T20:44:17.712Z,36.47
2022-12-12T20:46:46.081Z,35.65
2022-12-12T20:49:15.965Z,37.55
2022-12-12T20:51:59.174Z,36.33
2022-12-12T20:54:28.360Z,32.83
2022-12-12T20:56:56.074Z,39.40
2022-12-12T20:59:26.453Z,36.13
2022-12-12T21:01:54.209Z,32.83
2022-12-12T21:04:22.023Z,36.28
2022-12-12T21:06:51.548Z,36.05
2022-12-12T21:09:24.500Z,33.25
2022-12-12T21:11:57.159Z,34.97
2022-12-12T21:14:24.950Z,37.23
2022-12-12T21:16:52.229Z,35.03
2022-12-12T21:19:19.535Z,34.53
2022-12-12T21:21:47.069Z,34.78
2022-12-12T21:24:14.961Z,35.83
2022-12-12T21:26:42.434Z,39.78
2022-12-12T21:29:09.780Z,40.08
2022-12-12T21:31:38.760Z,41.40
2022-12-12T21:34:06.873Z,38.30
2022-12-12T21:36:34.501Z,36.33
2022-12-12T21:39:02.452Z,38.00
2022-12-12T21:41:29.839Z,37.60
2022-12-12T21:43:59.490Z,36.60
2022-12-12T21:46:27.492Z,42.47
2022-12-12T21:49:13.891Z,41.05
2022-12-12T21:51:42.111Z,51.35
2022-12-12T21:54:10.054Z,49.38
2022-12-12T21:56:37.461Z,42.13
2022-12-12T21:59:04.750Z,42.17
2022-12-12T22:01:32.567Z,40.03
2022-12-12T22:04:00.260Z,40.60
2022-12-12T22:06:28.890Z,41.38
2022-12-12T22:08:56.203Z,37.35
2022-12-12T22:11:41.377Z,41.00
2022-12-12T22:14:11.683Z,41.05
2022-12-12T22:16:39.346Z,37.47
2022-12-12T22:19:08.137Z,38.80
2022-12-12T22:21:35.757Z,40.70
2022-12-12T22:24:03.507Z,37.35
2022-12-12T22:26:31.874Z,41.05
2022-12-12T22:29:00.544Z,42.75
2022-12-12T22:31:28.696Z,44.15
2022-12-12T22:33:57.406Z,41.55
2022-12-12T22:36:26.131Z,44.10
2022-12-12T22:38:54.359Z,44.65
2022-12-12T22:41:21.873Z,44.20
2022-12-12T22:43:49.384Z,44.38
2022-12-12T22:46:16.641Z,42.42
2022-12-12T22:48:43.920Z,44.60
2022-12-12T22:51:15.677Z,43.13
2022-12-12T22:53:44.560Z,43.92
2022-12-12T22:56:11.859Z,42.30
2022-12-12T22:58:39.078Z,40.10
2022-12-12T23:01:16.409Z,39.42
2022-12-12T23:03:44.130Z,37.28
2022-12-12T23:06:18.798Z,38.35
2022-12-12T23:08:49.986Z,41.53
2022-12-12T23:11:17.528Z,40.97
2022-12-12T23:13:45.321Z,43.42
2022-12-12T23:16:13.983Z,44.60
2022-12-12T23:18:41.463Z,43.72
2022-12-12T23:21:16.325Z,39.10
2022-12-12T23:23:44.122Z,36.50
2022-12-12T23:26:16.058Z,43.20
2022-12-12T23:28:43.771Z,41.33
2022-12-12T23:31:12.524Z,38.80
2022-12-12T23:33:39.826Z,40.78
2022-12-12T23:36:10.882Z,40.03
2022-12-12T23:38:38.447Z,41.10
2022-12-12T23:41:06.229Z,35.42
2022-12-12T23:43:33.595Z,40.97
2022-12-12T23:46:04.780Z,37.85
2022-12-12T23:48:32.481Z,37.15
2022-12-12T23:51:00.140Z,39.72
2022-12-12T23:53:27.821Z,36.67
2022-12-12T23:55:55.025Z,40.55
2022-12-12T23:58:22.137Z,42.15
